Time;durP1;ratioP1;P1;durP2;ratioP2;P2;SDS_P1;SDS_P2;PMS_P1;PMS_P2;Temp;Humidity;BMP_temperature;BMP_pressure;BME280_temperature;BME280_humidity;BME280_pressure;Samples;Min_cycle;Max_cycle;Signal;HPM_P1;HPM_P2
2022/09/26 00:02:17;;;;;;;5.72;5.22;;;;;;;;;;5082944;28;20196;-66
2022/09/26 00:04:43;;;;;;;7.80;6.03;;;;;;;;;;5083390;28;20408;-66
2022/09/26 00:07:09;;;;;;;5.28;4.25;;;;;;;;;;5082826;28;20267;-66
2022/09/26 00:09:35;;;;;;;6.65;5.20;;;;;;;;;;5082935;28;20193;-66
2022/09/26 00:12:03;;;;;;;9.35;5.97;;;;;;;;;;5083053;28;20508;-66
2022/09/26 00:14:29;;;;;;;6.38;5.75;;;;;;;;;;5082769;28;20231;-66
2022/09/26 00:16:57;;;;;;;7.50;5.32;;;;;;;;;;5082886;28;20379;-66
2022/09/26 00:19:23;;;;;;;6.45;5.72;;;;;;;;;;5082748;28;20395;-66
2022/09/26 00:21:50;;;;;;;6.70;5.93;;;;;;;;;;5082680;28;20527;-66
2022/09/26 00:24:16;;;;;;;6.85;6.10;;;;;;;;;;5082575;28;20196;-68
2022/09/26 00:26:43;;;;;;;7.45;6.10;;;;;;;;;;5082608;28;20208;-68
2022/09/26 00:29:10;;;;;;;10.23;6.57;;;;;;;;;;5082468;28;20197;-68
2022/09/26 00:31:38;;;;;;;8.43;5.53;;;;;;;;;;5082558;28;20453;-68
2022/09/26 00:34:06;;;;;;;7.70;5.82;;;;;;;;;;5082162;28;20196;-68
2022/09/26 00:36:32;;;;;;;7.00;6.30;;;;;;;;;;5082599;28;20201;-68
2022/09/26 00:38:59;;;;;;;7.22;6.38;;;;;;;;;;5082519;28;20204;-68
2022/09/26 00:41:25;;;;;;;7.57;6.65;;;;;;;;;;5081708;28;20424;-68
2022/09/26 00:43:52;;;;;;;7.22;6.25;;;;;;;;;;5082138;28;20230;-68
2022/09/26 00:46:23;;;;;;;6.22;5.72;;;;;;;;;;5082407;28;20500;-68
2022/09/26 00:48:52;;;;;;;6.43;5.82;;;;;;;;;;5082253;28;20203;-68
2022/09/26 00:51:19;;;;;;;7.90;6.05;;;;;;;;;;5082280;28;20369;-68
2022/09/26 00:53:48;;;;;;;8.10;5.50;;;;;;;;;;5082087;28;20192;-68
2022/09/26 00:56:16;;;;;;;10.50;7.47;;;;;;;;;;5082450;28;20204;-68
2022/09/26 00:58:44;;;;;;;8.40;6.57;;;;;;;;;;5082233;28;20203;-68
2022/09/26 01:01:10;;;;;;;7.45;6.65;;;;;;;;;;5082303;28;20216;-68
2022/09/26 01:03:38;;;;;;;8.27;5.97;;;;;;;;;;5082071;28;20205;-68
2022/09/26 01:06:04;;;;;;;9.55;5.90;;;;;;;;;;5081984;28;20216;-68
2022/09/26 01:08:35;;;;;;;7.68;6.03;;;;;;;;;;5082162;28;20203;-68
2022/09/26 01:11:02;;;;;;;7.75;6.95;;;;;;;;;;5081967;28;20516;-68
2022/09/26 01:13:28;;;;;;;8.25;6.35;;;;;;;;;;5081805;28;20397;-68
2022/09/26 01:15:54;;;;;;;7.35;6.03;;;;;;;;;;5081822;28;20310;-68
2022/09/26 01:18:21;;;;;;;8.27;6.18;;;;;;;;;;5081800;28;20272;-68
2022/09/26 01:20:51;;;;;;;6.80;5.72;;;;;;;;;;5081956;28;20415;-68
2022/09/26 01:23:39;;;;;;;7.25;6.57;;;;;;;;;;5081704;28;20197;-68
2022/09/26 01:26:20;;;;;;;7.60;6.53;;;;;;;;;;5081582;28;20204;-68
2022/09/26 01:28:56;;;;;;;7.57;6.68;;;;;;;;;;5081702;28;20210;-68
2022/09/26 01:31:28;;;;;;;7.35;6.50;;;;;;;;;;5082009;28;20200;-68
2022/09/26 01:33:58;;;;;;;6.80;6.20;;;;;;;;;;5082129;28;20200;-66
2022/09/26 01:36:43;;;;;;;7.63;6.85;;;;;;;;;;5081881;28;20196;-66
2022/09/26 01:39:26;;;;;;;8.88;6.35;;;;;;;;;;5081878;28;20227;-66
2022/09/26 01:41:57;;;;;;;8.70;6.00;;;;;;;;;;5081615;28;20235;-66
2022/09/26 01:44:28;;;;;;;6.75;6.05;;;;;;;;;;5081550;28;20204;-66
2022/09/26 01:46:58;;;;;;;6.85;6.25;;;;;;;;;;5081571;28;20196;-66
2022/09/26 01:49:27;;;;;;;6.82;6.15;;;;;;;;;;5081806;28;20630;-66
2022/09/26 01:51:56;;;;;;;7.13;6.47;;;;;;;;;;5081724;28;20200;-68
2022/09/26 01:54:24;;;;;;;7.88;6.45;;;;;;;;;;5083206;28;20400;-68
2022/09/26 01:56:51;;;;;;;7.28;6.60;;;;;;;;;;5085638;28;20200;-68
2022/09/26 01:59:20;;;;;;;8.73;6.03;;;;;;;;;;5084858;28;20196;-69
2022/09/26 02:01:48;;;;;;;9.15;7.00;;;;;;;;;;5085173;28;20283;-69
2022/09/26 02:04:19;;;;;;;7.82;6.90;;;;;;;;;;5085123;28;20202;-67
2022/09/26 02:06:48;;;;;;;9.50;7.53;;;;;;;;;;5085451;28;20216;-69
2022/09/26 02:09:15;;;;;;;9.65;7.03;;;;;;;;;;5085121;28;20527;-69
2022/09/26 02:11:45;;;;;;;8.90;6.53;;;;;;;;;;5085340;28;20193;-69
2022/09/26 02:14:13;;;;;;;8.98;7.22;;;;;;;;;;5084848;28;20200;-69
2022/09/26 02:16:43;;;;;;;8.20;7.05;;;;;;;;;;5085387;28;20204;-68
2022/09/26 02:19:14;;;;;;;9.23;7.40;;;;;;;;;;5085090;28;20203;-67
2022/09/26 02:21:42;;;;;;;7.88;7.07;;;;;;;;;;5084966;28;20216;-66
2022/09/26 02:24:08;;;;;;;7.90;6.82;;;;;;;;;;5085003;28;20189;-66
2022/09/26 02:26:34;;;;;;;8.55;7.43;;;;;;;;;;5084915;28;20210;-66
2022/09/26 02:29:01;;;;;;;10.32;7.50;;;;;;;;;;5084843;28;20201;-66
2022/09/26 02:31:29;;;;;;;8.70;7.70;;;;;;;;;;5085060;28;20192;-66
2022/09/26 02:33:56;;;;;;;11.80;7.32;;;;;;;;;;5084688;28;20203;-67
2022/09/26 02:36:23;;;;;;;12.65;7.88;;;;;;;;;;5084558;28;20197;-67
2022/09/26 02:38:50;;;;;;;10.60;7.72;;;;;;;;;;5085008;28;20219;-67
2022/09/26 02:41:21;;;;;;;8.45;7.40;;;;;;;;;;5084750;28;20406;-66
2022/09/26 02:44:02;;;;;;;8.55;7.75;;;;;;;;;;5084352;28;20267;-67
2022/09/26 02:46:38;;;;;;;10.13;8.10;;;;;;;;;;5084677;28;20196;-68
2022/09/26 02:49:10;;;;;;;9.75;7.22;;;;;;;;;;5084562;28;20256;-68
2022/09/26 02:51:44;;;;;;;8.82;8.02;;;;;;;;;;5084676;28;20199;-68
2022/09/26 02:54:20;;;;;;;9.25;7.55;;;;;;;;;;5084526;28;20196;-68
2022/09/26 02:56:54;;;;;;;8.93;8.10;;;;;;;;;;5084442;28;20196;-68
2022/09/26 02:59:22;;;;;;;8.85;8.00;;;;;;;;;;5084650;28;20267;-68
2022/09/26 03:01:52;;;;;;;9.90;7.68;;;;;;;;;;5084288;28;20227;-68
2022/09/26 03:04:22;;;;;;;9.30;8.20;;;;;;;;;;5083834;28;20514;-68
2022/09/26 03:06:51;;;;;;;8.93;8.02;;;;;;;;;;5084383;28;20184;-68
2022/09/26 03:09:19;;;;;;;9.82;7.53;;;;;;;;;;5084161;28;20204;-68
2022/09/26 03:11:47;;;;;;;8.60;7.82;;;;;;;;;;5083784;28;20198;-68
2022/09/26 03:14:13;;;;;;;12.23;8.50;;;;;;;;;;5083582;28;20203;-68
2022/09/26 03:16:42;;;;;;;8.45;7.75;;;;;;;;;;5084115;28;20202;-68
2022/09/26 03:19:10;;;;;;;11.32;7.97;;;;;;;;;;5084014;28;20196;-69
2022/09/26 03:21:37;;;;;;;8.80;7.90;;;;;;;;;;5083825;28;20212;-69
2022/09/26 03:24:03;;;;;;;8.00;7.38;;;;;;;;;;5083576;28;20496;-69
2022/09/26 03:26:32;;;;;;;9.20;7.72;;;;;;;;;;5083725;28;20204;-69
2022/09/26 03:28:58;;;;;;;8.25;7.50;;;;;;;;;;5083872;28;20223;-69
2022/09/26 03:31:25;;;;;;;12.10;8.68;;;;;;;;;;5083870;28;20457;-69
2022/09/26 03:33:52;;;;;;;11.93;8.93;;;;;;;;;;5083222;28;20243;-69
2022/09/26 03:36:19;;;;;;;11.38;9.85;;;;;;;;;;5083721;28;20203;-69
2022/09/26 03:38:46;;;;;;;12.07;9.82;;;;;;;;;;5083464;28;20297;-69
2022/09/26 03:41:12;;;;;;;11.13;9.95;;;;;;;;;;5083691;28;20555;-69
2022/09/26 03:43:42;;;;;;;12.70;9.40;;;;;;;;;;5083588;28;20519;-69
2022/09/26 03:46:10;;;;;;;12.00;9.98;;;;;;;;;;5083772;28;20535;-69
2022/09/26 03:48:37;;;;;;;13.55;9.05;;;;;;;;;;5083593;28;20242;-69
2022/09/26 03:51:03;;;;;;;10.45;9.45;;;;;;;;;;5083976;28;20192;-69
2022/09/26 03:53:31;;;;;;;10.65;9.05;;;;;;;;;;5083166;28;20203;-69
2022/09/26 03:56:02;;;;;;;9.88;8.88;;;;;;;;;;5083460;28;20390;-69
2022/09/26 03:58:28;;;;;;;10.38;9.32;;;;;;;;;;5083373;28;20275;-69
2022/09/26 04:01:02;;;;;;;9.52;8.73;;;;;;;;;;5083241;28;20203;-69
2022/09/26 04:03:28;;;;;;;11.45;9.60;;;;;;;;;;5083015;28;20203;-69
2022/09/26 04:05:54;;;;;;;9.07;8.25;;;;;;;;;;5082591;28;20216;-69
2022/09/26 04:08:20;;;;;;;10.52;9.45;;;;;;;;;;5083291;28;20202;-69
2022/09/26 04:10:47;;;;;;;10.95;9.80;;;;;;;;;;5083228;28;20204;-69
2022/09/26 04:13:13;;;;;;;9.88;8.93;;;;;;;;;;5082795;28;20518;-69
2022/09/26 04:15:39;;;;;;;11.10;9.65;;;;;;;;;;5082900;28;20384;-69
2022/09/26 04:18:07;;;;;;;10.10;9.05;;;;;;;;;;5082225;28;20200;-69
2022/09/26 04:20:33;;;;;;;13.38;9.70;;;;;;;;;;5082716;28;20234;-69
2022/09/26 04:22:59;;;;;;;11.23;10.05;;;;;;;;;;5082504;28;20222;-69
2022/09/26 04:25:25;;;;;;;15.23;10.77;;;;;;;;;;5082708;28;20204;-69
2022/09/26 04:27:52;;;;;;;13.88;10.48;;;;;;;;;;5082959;28;20495;-69
2022/09/26 04:30:19;;;;;;;13.05;10.68;;;;;;;;;;5082579;28;20196;-69
2022/09/26 04:32:45;;;;;;;10.85;9.50;;;;;;;;;;5082435;28;20192;-69
2022/09/26 04:35:12;;;;;;;10.98;9.88;;;;;;;;;;5082322;28;20203;-69
2022/09/26 04:37:40;;;;;;;11.60;10.32;;;;;;;;;;5082604;28;20203;-70
2022/09/26 04:40:08;;;;;;;10.90;9.85;;;;;;;;;;5082659;28;20204;-70
2022/09/26 04:42:35;;;;;;;10.30;9.35;;;;;;;;;;5082231;28;20216;-69
2022/09/26 04:45:02;;;;;;;11.50;9.77;;;;;;;;;;5082463;28;20504;-70
2022/09/26 04:47:28;;;;;;;15.95;10.27;;;;;;;;;;5082380;28;20503;-70
2022/09/26 04:49:54;;;;;;;10.65;9.65;;;;;;;;;;5082172;28;20418;-70
2022/09/26 04:52:22;;;;;;;11.68;9.55;;;;;;;;;;5082118;28;20192;-70
2022/09/26 04:54:48;;;;;;;11.70;10.30;;;;;;;;;;5082417;28;20202;-70
2022/09/26 04:57:14;;;;;;;16.33;10.93;;;;;;;;;;5082377;28;20526;-70
2022/09/26 04:59:40;;;;;;;10.95;9.88;;;;;;;;;;5082170;28;20196;-70
2022/09/26 05:02:07;;;;;;;12.07;9.93;;;;;;;;;;5081963;28;20219;-70
2022/09/26 05:04:33;;;;;;;12.88;10.32;;;;;;;;;;5081855;28;20242;-70
2022/09/26 05:07:00;;;;;;;13.02;11.60;;;;;;;;;;5074367;28;20204;-65
2022/09/26 05:09:33;;;;;;;12.45;10.77;;;;;;;;;;5064255;28;20215;-70
2022/09/26 05:11:59;;;;;;;12.65;10.15;;;;;;;;;;5071211;28;20213;-66
2022/09/26 05:14:26;;;;;;;12.02;10.63;;;;;;;;;;5075119;28;20208;-65
2022/09/26 05:16:52;;;;;;;11.93;10.68;;;;;;;;;;5075758;28;20214;-64
2022/09/26 05:19:20;;;;;;;11.90;10.63;;;;;;;;;;5066514;28;20208;-63
2022/09/26 05:21:46;;;;;;;11.05;9.95;;;;;;;;;;5073273;28;20234;-63
2022/09/26 05:26:59;;;;;;;10.98;9.88;;;;;;;;;;5074497;28;20287;-63
2022/09/26 05:29:25;;;;;;;10.77;9.68;;;;;;;;;;5073244;28;20232;-63
2022/09/26 05:31:53;;;;;;;11.43;10.40;;;;;;;;;;5071879;28;20239;-63
2022/09/26 05:34:20;;;;;;;13.45;9.88;;;;;;;;;;5074109;28;20230;-63
2022/09/26 05:36:46;;;;;;;11.57;10.35;;;;;;;;;;5074092;28;20219;-63
2022/09/26 05:41:53;;;;;;;10.77;9.77;;;;;;;;;;5073721;28;20586;-63
2022/09/26 05:44:20;;;;;;;11.63;10.43;;;;;;;;;;5073909;28;20542;-63
2022/09/26 05:46:47;;;;;;;10.50;9.40;;;;;;;;;;5074087;28;20215;-63
2022/09/26 05:49:13;;;;;;;11.98;9.95;;;;;;;;;;5073806;28;20212;-62
2022/09/26 05:51:40;;;;;;;12.38;10.10;;;;;;;;;;5076063;28;20219;-64
2022/09/26 05:54:07;;;;;;;11.75;10.50;;;;;;;;;;5076619;28;20204;-64
2022/09/26 05:56:36;;;;;;;11.70;9.52;;;;;;;;;;5076621;28;20477;-64
2022/09/26 05:59:02;;;;;;;10.95;9.85;;;;;;;;;;5077118;28;20230;-64
2022/09/26 06:01:30;;;;;;;10.90;9.50;;;;;;;;;;5076541;28;20219;-64
2022/09/26 06:03:56;;;;;;;10.75;9.75;;;;;;;;;;5076870;28;20196;-64
2022/09/26 06:06:23;;;;;;;11.43;10.27;;;;;;;;;;5076747;28;20302;-64
2022/09/26 06:08:49;;;;;;;11.82;10.20;;;;;;;;;;5076030;28;20493;-64
2022/09/26 06:11:16;;;;;;;11.90;10.00;;;;;;;;;;5076910;28;20251;-64
2022/09/26 06:13:44;;;;;;;11.32;10.23;;;;;;;;;;5076295;28;20200;-64
2022/09/26 06:16:12;;;;;;;10.68;9.57;;;;;;;;;;5077218;28;20209;-64
2022/09/26 06:18:40;;;;;;;10.68;9.68;;;;;;;;;;5076848;28;20302;-64
2022/09/26 06:21:08;;;;;;;9.82;8.95;;;;;;;;;;5076450;28;20208;-64
2022/09/26 06:23:34;;;;;;;9.65;8.75;;;;;;;;;;5076141;28;20434;-64
2022/09/26 06:26:01;;;;;;;10.45;8.25;;;;;;;;;;5076369;28;20224;-64
2022/09/26 06:28:27;;;;;;;14.52;9.60;;;;;;;;;;5076633;28;20208;-64
2022/09/26 06:30:54;;;;;;;9.98;8.57;;;;;;;;;;5076413;28;20214;-64
2022/09/26 06:33:20;;;;;;;9.65;8.80;;;;;;;;;;5075937;28;20204;-64
2022/09/26 06:35:48;;;;;;;10.13;9.23;;;;;;;;;;5076856;28;20204;-64
2022/09/26 06:38:14;;;;;;;10.05;9.10;;;;;;;;;;5076384;28;20385;-64
2022/09/26 06:40:41;;;;;;;9.38;8.43;;;;;;;;;;5079435;28;20208;-64
2022/09/26 06:43:07;;;;;;;9.25;8.40;;;;;;;;;;5079668;28;20311;-64
2022/09/26 06:45:33;;;;;;;9.30;8.40;;;;;;;;;;5079972;28;20224;-64
2022/09/26 06:48:00;;;;;;;10.63;8.77;;;;;;;;;;5080152;28;20265;-64
2022/09/26 06:50:26;;;;;;;8.55;7.82;;;;;;;;;;5079914;28;20215;-61
2022/09/26 06:52:54;;;;;;;8.50;7.80;;;;;;;;;;5079744;28;20204;-63
2022/09/26 06:55:21;;;;;;;8.32;7.63;;;;;;;;;;5080516;28;20219;-64
2022/09/26 06:57:47;;;;;;;8.43;7.72;;;;;;;;;;5079556;28;20212;-63
2022/09/26 07:00:15;;;;;;;10.10;7.72;;;;;;;;;;5080388;28;20212;-63
2022/09/26 07:02:48;;;;;;;8.77;7.43;;;;;;;;;;5079239;28;20230;-63
2022/09/26 07:05:15;;;;;;;7.57;6.88;;;;;;;;;;5076189;28;20229;-64
2022/09/26 07:07:44;;;;;;;11.02;7.55;;;;;;;;;;5079998;28;20232;-63
2022/09/26 07:10:12;;;;;;;8.23;7.15;;;;;;;;;;5076527;28;20537;-63
2022/09/26 07:12:39;;;;;;;7.47;6.78;;;;;;;;;;5080227;28;20208;-63
2022/09/26 07:15:06;;;;;;;6.85;5.82;;;;;;;;;;5079622;28;20426;-64
2022/09/26 07:17:32;;;;;;;6.55;6.05;;;;;;;;;;5079514;28;20208;-63
2022/09/26 07:19:58;;;;;;;7.20;6.60;;;;;;;;;;5078825;28;20214;-63
2022/09/26 07:22:25;;;;;;;7.05;6.32;;;;;;;;;;5079540;28;20232;-63
2022/09/26 07:24:51;;;;;;;7.20;6.60;;;;;;;;;;5079414;28;20208;-62
2022/09/26 07:27:18;;;;;;;6.30;5.82;;;;;;;;;;5079090;28;20208;-62
2022/09/26 07:29:46;;;;;;;7.57;6.78;;;;;;;;;;5079703;28;20489;-63
2022/09/26 07:32:12;;;;;;;5.82;5.40;;;;;;;;;;5079580;28;20227;-63
2022/09/26 07:34:40;;;;;;;6.30;5.80;;;;;;;;;;5079294;28;20225;-63
2022/09/26 07:37:07;;;;;;;7.03;6.38;;;;;;;;;;5076535;28;20211;-63
2022/09/26 07:39:33;;;;;;;7.15;5.90;;;;;;;;;;5078798;28;20258;-63
2022/09/26 07:42:02;;;;;;;7.07;6.30;;;;;;;;;;5078615;28;20208;-63
2022/09/26 07:44:29;;;;;;;6.68;6.05;;;;;;;;;;5078909;28;20452;-64
2022/09/26 07:52:24;;;;;;;5.97;5.25;;;;;;;;;;5076364;28;20427;-64
2022/09/26 07:54:50;;;;;;;4.82;4.50;;;;;;;;;;5078471;28;20602;-64
2022/09/26 07:57:18;;;;;;;5.88;4.80;;;;;;;;;;5078610;28;20367;-63
2022/09/26 07:59:48;;;;;;;5.20;4.80;;;;;;;;;;5078776;28;20214;-63
2022/09/26 08:02:20;;;;;;;5.43;4.22;;;;;;;;;;5078036;28;20265;-63
2022/09/26 08:04:46;;;;;;;3.65;3.50;;;;;;;;;;5078048;28;20532;-62
2022/09/26 08:07:13;;;;;;;4.45;4.05;;;;;;;;;;5078817;28;20208;-63
2022/09/26 08:09:40;;;;;;;8.75;3.65;;;;;;;;;;5078189;28;20279;-64
2022/09/26 08:12:06;;;;;;;3.70;3.35;;;;;;;;;;5078057;28;20214;-63
2022/09/26 08:14:32;;;;;;;3.33;3.08;;;;;;;;;;5078445;28;20200;-64
2022/09/26 08:17:00;;;;;;;3.38;3.05;;;;;;;;;;5070396;28;20201;-63
2022/09/26 08:19:26;;;;;;;2.50;2.40;;;;;;;;;;5076573;28;20208;-63
2022/09/26 08:21:52;;;;;;;2.67;2.47;;;;;;;;;;5078066;28;20424;-63
2022/09/26 08:24:19;;;;;;;2.45;2.28;;;;;;;;;;5077799;28;20462;-63
2022/09/26 08:26:45;;;;;;;2.67;2.42;;;;;;;;;;5077853;28;20208;-63
2022/09/26 08:29:11;;;;;;;3.47;2.25;;;;;;;;;;5078207;28;20216;-63
2022/09/26 08:31:38;;;;;;;2.22;2.20;;;;;;;;;;5078047;28;20212;-63
2022/09/26 08:34:06;;;;;;;2.33;2.22;;;;;;;;;;5077208;28;20208;-64
2022/09/26 08:36:35;;;;;;;2.08;1.90;;;;;;;;;;5077507;28;20208;-64
2022/09/26 08:39:02;;;;;;;2.50;2.30;;;;;;;;;;5077385;28;20254;-63
2022/09/26 08:41:35;;;;;;;2.00;1.90;;;;;;;;;;5077342;28;20485;-64
2022/09/26 08:44:08;;;;;;;3.38;2.35;;;;;;;;;;5077501;28;20422;-64
2022/09/26 08:46:47;;;;;;;4.95;2.20;;;;;;;;;;5077878;28;20562;-64
2022/09/26 08:49:39;;;;;;;3.90;2.47;;;;;;;;;;5077759;28;20208;-64
2022/09/26 08:52:08;;;;;;;4.13;2.60;;;;;;;;;;5077477;28;20208;-63
2022/09/26 08:54:36;;;;;;;3.17;2.55;;;;;;;;;;5077451;28;20208;-64
2022/09/26 08:57:05;;;;;;;4.00;2.58;;;;;;;;;;5077565;28;20242;-63
2022/09/26 08:59:34;;;;;;;2.42;2.40;;;;;;;;;;5077091;28;20208;-63
2022/09/26 09:02:03;;;;;;;2.47;2.33;;;;;;;;;;5074046;28;20219;-63
2022/09/26 09:04:35;;;;;;;4.90;2.53;;;;;;;;;;5074111;28;20248;-62
2022/09/26 09:07:06;;;;;;;3.00;2.70;;;;;;;;;;5073841;28;20205;-63
2022/09/26 09:09:32;;;;;;;2.55;2.35;;;;;;;;;;5073972;28;20214;-63
2022/09/26 09:12:07;;;;;;;2.70;2.50;;;;;;;;;;5073776;28;20235;-63
2022/09/26 09:14:50;;;;;;;3.80;2.33;;;;;;;;;;5074573;28;20582;-63
2022/09/26 09:17:21;;;;;;;2.60;2.40;;;;;;;;;;5071306;28;20218;-63
2022/09/26 09:19:52;;;;;;;3.15;2.47;;;;;;;;;;5073836;28;20216;-63
2022/09/26 09:22:32;;;;;;;4.15;2.33;;;;;;;;;;5074003;28;20231;-63
2022/09/26 09:24:59;;;;;;;2.78;2.60;;;;;;;;;;5071156;28;20216;-62
2022/09/26 09:27:32;;;;;;;5.13;3.22;;;;;;;;;;5073431;28;20220;-62
2022/09/26 09:30:02;;;;;;;2.72;2.17;;;;;;;;;;5073450;28;20218;-62
2022/09/26 09:32:30;;;;;;;2.20;2.00;;;;;;;;;;5073406;28;20414;-62
2022/09/26 09:34:57;;;;;;;8.93;2.38;;;;;;;;;;5073534;28;20208;-62
2022/09/26 09:37:25;;;;;;;2.28;2.10;;;;;;;;;;5074236;28;20470;-62
2022/09/26 09:39:53;;;;;;;3.03;2.50;;;;;;;;;;5073955;28;20221;-62
2022/09/26 09:42:23;;;;;;;2.67;2.30;;;;;;;;;;5073825;28;20538;-62
2022/09/26 09:44:52;;;;;;;4.10;2.17;;;;;;;;;;5074088;28;20200;-62
2022/09/26 09:47:19;;;;;;;2.08;1.80;;;;;;;;;;5073868;28;20212;-62
2022/09/26 09:49:47;;;;;;;5.65;1.80;;;;;;;;;;5072754;28;20523;-62
2022/09/26 09:52:18;;;;;;;2.78;1.70;;;;;;;;;;5074530;28;20216;-62
2022/09/26 09:54:48;;;;;;;2.28;1.33;;;;;;;;;;5070731;28;20410;-62
2022/09/26 09:57:32;;;;;;;1.50;1.50;;;;;;;;;;5073911;28;20246;-62
2022/09/26 10:00:05;;;;;;;1.73;1.63;;;;;;;;;;5074071;28;20239;-62
2022/09/26 10:02:34;;;;;;;1.95;1.40;;;;;;;;;;5073497;28;20217;-62
2022/09/26 10:05:05;;;;;;;4.22;1.70;;;;;;;;;;5074124;28;20307;-62
2022/09/26 10:07:31;;;;;;;2.67;1.63;;;;;;;;;;5074138;28;20573;-62
2022/09/26 10:09:57;;;;;;;1.60;1.50;;;;;;;;;;5074120;28;20381;-63
2022/09/26 10:12:27;;;;;;;1.20;1.17;;;;;;;;;;5073607;28;20212;-62
2022/09/26 10:14:55;;;;;;;2.08;1.38;;;;;;;;;;5074686;28;20209;-63
2022/09/26 10:17:23;;;;;;;1.95;1.10;;;;;;;;;;5076774;28;20226;-63
2022/09/26 10:19:50;;;;;;;2.85;1.23;;;;;;;;;;5078158;28;20235;-63
2022/09/26 10:22:24;;;;;;;1.20;1.10;;;;;;;;;;5078120;28;20204;-64
2022/09/26 10:24:51;;;;;;;10.35;8.05;;;;;;;;;;5078486;28;20224;-63
2022/09/26 10:27:20;;;;;;;1.38;1.27;;;;;;;;;;5077324;28;20226;-64
2022/09/26 10:29:55;;;;;;;1.35;1.25;;;;;;;;;;5077422;28;20399;-63
2022/09/26 10:32:22;;;;;;;2.40;1.80;;;;;;;;;;5077520;28;20488;-63
2022/09/26 10:35:02;;;;;;;1.55;1.40;;;;;;;;;;5077918;28;20216;-62
2022/09/26 10:37:29;;;;;;;1.35;1.10;;;;;;;;;;5077238;28;20224;-63
2022/09/26 10:42:41;;;;;;;2.17;1.30;;;;;;;;;;5074212;28;20542;-61
2022/09/26 10:45:12;;;;;;;2.28;1.45;;;;;;;;;;5077128;28;20212;-62
2022/09/26 10:47:44;;;;;;;1.63;1.10;;;;;;;;;;5077249;28;20212;-60
2022/09/26 10:50:12;;;;;;;3.85;1.30;;;;;;;;;;5077136;28;20346;-60
2022/09/26 10:52:40;;;;;;;2.10;1.58;;;;;;;;;;5077275;28;20229;-59
2022/09/26 10:55:10;;;;;;;6.15;1.40;;;;;;;;;;5076442;28;20441;-59
2022/09/26 10:57:38;;;;;;;1.73;1.30;;;;;;;;;;5076483;28;20213;-59
2022/09/26 11:00:06;;;;;;;1.42;1.10;;;;;;;;;;5076458;28;20211;-59
2022/09/26 11:02:33;;;;;;;1.27;1.08;;;;;;;;;;5076873;28;20258;-58
2022/09/26 11:07:48;;;;;;;3.90;1.05;;;;;;;;;;5073696;28;20503;-59
2022/09/26 11:10:16;;;;;;;1.75;1.00;;;;;;;;;;5077422;28;20529;-59
2022/09/26 11:12:55;;;;;;;1.83;1.15;;;;;;;;;;5076941;28;20204;-59
2022/09/26 11:15:22;;;;;;;1.15;1.02;;;;;;;;;;5074613;28;20208;-60
2022/09/26 11:17:50;;;;;;;2.35;0.93;;;;;;;;;;5076435;28;20261;-60
2022/09/26 11:20:24;;;;;;;3.17;1.08;;;;;;;;;;5077102;28;20254;-60
2022/09/26 11:22:53;;;;;;;1.80;0.90;;;;;;;;;;5076728;28;20226;-60
2022/09/26 11:25:23;;;;;;;4.70;0.95;;;;;;;;;;5076642;28;20212;-61
2022/09/26 11:27:51;;;;;;;1.40;1.08;;;;;;;;;;5076262;28;20298;-61
2022/09/26 11:30:19;;;;;;;1.00;1.00;;;;;;;;;;5076713;28;20212;-60
2022/09/26 11:32:48;;;;;;;4.28;1.00;;;;;;;;;;5076280;28;20262;-60
2022/09/26 11:35:15;;;;;;;1.23;0.80;;;;;;;;;;5076642;28;20231;-59
2022/09/26 11:37:52;;;;;;;2.67;1.00;;;;;;;;;;5076704;28;20516;-59
2022/09/26 11:40:31;;;;;;;0.70;0.70;;;;;;;;;;5075484;28;20401;-59
2022/09/26 11:43:13;;;;;;;2.63;0.68;;;;;;;;;;5075496;28;20238;-60
2022/09/26 11:45:55;;;;;;;1.45;0.80;;;;;;;;;;5072569;28;20396;-59
2022/09/26 11:48:31;;;;;;;2.20;0.63;;;;;;;;;;5074830;28;20532;-60
2022/09/26 11:51:02;;;;;;;2.95;0.68;;;;;;;;;;5075024;28;20257;-60
2022/09/26 11:53:39;;;;;;;0.98;0.75;;;;;;;;;;5064188;28;20197;-60
2022/09/26 11:56:22;;;;;;;0.60;0.60;;;;;;;;;;5073355;28;20207;-60
2022/09/26 11:58:51;;;;;;;0.45;0.40;;;;;;;;;;5071724;28;20279;-59
2022/09/26 12:01:22;;;;;;;0.32;0.32;;;;;;;;;;5075713;28;20216;-59
2022/09/26 12:04:10;;;;;;;0.60;0.50;;;;;;;;;;5074637;28;20274;-60
2022/09/26 12:06:41;;;;;;;0.50;0.43;;;;;;;;;;5075907;28;20228;-59
2022/09/26 12:09:17;;;;;;;0.40;0.40;;;;;;;;;;5074313;28;20215;-59
2022/09/26 12:11:52;;;;;;;0.60;0.60;;;;;;;;;;5075342;28;20219;-59
2022/09/26 12:14:28;;;;;;;0.95;0.68;;;;;;;;;;5075331;28;20200;-59
2022/09/26 12:16:57;;;;;;;1.08;0.60;;;;;;;;;;5075261;28;20204;-61
2022/09/26 12:19:30;;;;;;;0.73;0.50;;;;;;;;;;5074649;28;20217;-61
2022/09/26 12:24:50;;;;;;;0.57;0.57;;;;;;;;;;5071646;28;20230;-60
2022/09/26 12:27:20;;;;;;;1.30;0.60;;;;;;;;;;5074953;28;20220;-60
2022/09/26 12:29:49;;;;;;;2.58;0.95;;;;;;;;;;5075187;28;20216;-61
2022/09/26 12:32:23;;;;;;;0.90;0.70;;;;;;;;;;5075115;28;20650;-61
2022/09/26 12:34:56;;;;;;;1.65;0.68;;;;;;;;;;5074317;28;20215;-61
2022/09/26 12:37:48;;;;;;;2.30;0.60;;;;;;;;;;5077404;28;20430;-61
2022/09/26 12:40:25;;;;;;;1.58;0.60;;;;;;;;;;5075319;28;20516;-59
2022/09/26 12:43:03;;;;;;;4.03;0.50;;;;;;;;;;5075027;28;20196;-59
2022/09/26 12:45:41;;;;;;;1.85;0.40;;;;;;;;;;5077985;28;20244;-59
2022/09/26 12:48:12;;;;;;;0.82;0.30;;;;;;;;;;5077730;28;20211;-60
2022/09/26 12:50:45;;;;;;;1.45;0.40;;;;;;;;;;5077839;28;20212;-60
2022/09/26 12:53:32;;;;;;;1.63;0.55;;;;;;;;;;5077726;28;20204;-60
2022/09/26 12:56:05;;;;;;;0.52;0.52;;;;;;;;;;5051908;28;20208;-60
2022/09/26 12:58:36;;;;;;;0.98;0.50;;;;;;;;;;5077972;28;20201;-60
2022/09/26 13:01:07;;;;;;;0.65;0.50;;;;;;;;;;5078034;28;20215;-59
2022/09/26 13:03:40;;;;;;;1.85;0.45;;;;;;;;;;5076712;28;20299;-60
2022/09/26 13:06:26;;;;;;;0.80;0.55;;;;;;;;;;5077944;28;20228;-60
2022/09/26 13:08:57;;;;;;;1.60;0.60;;;;;;;;;;5077482;28;20262;-61
2022/09/26 13:11:29;;;;;;;0.50;0.50;;;;;;;;;;5074851;28;20230;-57
2022/09/26 13:14:08;;;;;;;1.50;0.70;;;;;;;;;;5077273;28;20469;-59
2022/09/26 13:16:38;;;;;;;1.50;0.80;;;;;;;;;;5077966;28;20240;-58
2022/09/26 13:19:10;;;;;;;1.40;0.60;;;;;;;;;;5077377;28;20223;-59
2022/09/26 13:21:42;;;;;;;1.13;0.70;;;;;;;;;;5077208;28;20230;-59
2022/09/26 13:24:12;;;;;;;2.67;0.90;;;;;;;;;;5077110;28;20300;-59
2022/09/26 13:26:45;;;;;;;2.13;0.90;;;;;;;;;;5076842;28;20235;-60
2022/09/26 13:29:13;;;;;;;0.40;0.40;;;;;;;;;;5078029;28;20207;-58
2022/09/26 13:31:41;;;;;;;0.63;0.30;;;;;;;;;;5077969;28;20261;-60
2022/09/26 13:34:13;;;;;;;1.90;0.40;;;;;;;;;;5073175;28;20466;-59
2022/09/26 13:36:41;;;;;;;2.17;0.40;;;;;;;;;;5077720;28;20215;-59
2022/09/26 13:39:11;;;;;;;0.55;0.55;;;;;;;;;;5076833;28;20207;-59
2022/09/26 13:41:42;;;;;;;0.30;0.30;;;;;;;;;;5077445;28;20214;-59
2022/09/26 13:44:18;;;;;;;1.05;0.40;;;;;;;;;;5076714;28;20232;-59
2022/09/26 13:46:52;;;;;;;1.13;0.25;;;;;;;;;;5077196;28;20208;-61
2022/09/26 13:49:26;;;;;;;0.55;0.43;;;;;;;;;;5076092;28;20208;-60
2022/09/26 13:51:58;;;;;;;0.38;0.38;;;;;;;;;;5081188;28;20607;-58
2022/09/26 13:54:26;;;;;;;1.00;0.40;;;;;;;;;;5080978;28;20227;-59
2022/09/26 13:56:54;;;;;;;0.35;0.35;;;;;;;;;;5080880;28;20275;-59
2022/09/26 13:59:24;;;;;;;1.50;0.60;;;;;;;;;;5080513;28;20508;-59
2022/09/26 14:02:09;;;;;;;0.50;0.50;;;;;;;;;;5080726;28;20284;-59
2022/09/26 14:04:36;;;;;;;1.85;0.60;;;;;;;;;;5080762;28;20224;-60
2022/09/26 14:09:22;;;;;;;0.50;0.50;;;;;;;;;;5080724;28;20214;-59
2022/09/26 14:09:53;;;;;;;1.77;0.50;;;;;;;;;;5080295;28;20372;-59
2022/09/26 14:12:31;;;;;;;2.30;0.40;;;;;;;;;;5080313;28;20270;-59
2022/09/26 14:15:16;;;;;;;2.03;0.50;;;;;;;;;;5080420;28;20561;-63
2022/09/26 14:18:00;;;;;;;0.40;0.35;;;;;;;;;;5077368;28;20523;-63
2022/09/26 14:20:28;;;;;;;0.40;0.40;;;;;;;;;;5080613;28;20208;-64
2022/09/26 14:22:56;;;;;;;0.93;0.45;;;;;;;;;;5080288;28;20536;-64
2022/09/26 14:25:41;;;;;;;2.78;0.40;;;;;;;;;;5080287;28;20462;-64
2022/09/26 14:28:16;;;;;;;1.25;0.57;;;;;;;;;;5080362;28;20246;-66
2022/09/26 14:31:03;;;;;;;0.60;0.60;;;;;;;;;;5076938;28;20199;-65
2022/09/26 14:33:29;;;;;;;3.67;0.52;;;;;;;;;;5080221;28;20212;-63
2022/09/26 14:36:11;;;;;;;2.05;0.45;;;;;;;;;;5080407;28;20204;-62
2022/09/26 14:38:38;;;;;;;1.48;0.52;;;;;;;;;;5080038;28;20212;-63
2022/09/26 14:41:05;;;;;;;2.10;0.68;;;;;;;;;;5079966;28;20218;-63
2022/09/26 14:43:32;;;;;;;0.70;0.70;;;;;;;;;;5080189;28;20254;-64
2022/09/26 14:46:02;;;;;;;1.48;0.70;;;;;;;;;;5080230;28;20239;-63
2022/09/26 14:48:32;;;;;;;0.60;0.38;;;;;;;;;;5080274;28;20216;-63
2022/09/26 14:51:00;;;;;;;0.90;0.65;;;;;;;;;;5080071;28;20208;-63
2022/09/26 14:53:32;;;;;;;0.93;0.50;;;;;;;;;;5079942;28;20215;-61
2022/09/26 14:55:59;;;;;;;0.75;0.40;;;;;;;;;;5079782;28;20531;-61
2022/09/26 14:58:30;;;;;;;0.32;0.32;;;;;;;;;;5080196;28;20208;-62
2022/09/26 15:00:59;;;;;;;0.40;0.40;;;;;;;;;;5078933;28;20519;-61
2022/09/26 15:03:27;;;;;;;1.30;0.60;;;;;;;;;;5079460;28;20451;-62
2022/09/26 15:05:54;;;;;;;1.00;0.50;;;;;;;;;;5079313;28;20594;-63
2022/09/26 15:08:22;;;;;;;0.50;0.50;;;;;;;;;;5079524;28;20209;-61
2022/09/26 15:10:49;;;;;;;1.85;0.57;;;;;;;;;;5079781;28;20290;-62
2022/09/26 15:13:25;;;;;;;1.92;0.70;;;;;;;;;;5080133;28;20457;-62